»·PEaware :: I-BELA LIMC-LIMF

I-BELA :: LIMC-LIMF

FLIGHT INFORMATION

Flight Status: Arrived
Operator: Privately registered:
Italy
More flights under this callsign
Pilot: Gianluca B. (450)
Aircraft: BOEING 777-200
(B772)
More flights by this aircraft type
Origin: LIMC Malpensa
Italy
Destination: LIMF Caselle
Italy
More flights between these airports :: More routes between these airports
Route: SRN
File this flight plan on PilotEdge
Remarks: DOF / 130712 RMK / TESTING LIM_ FREQUENCIES
Altitude:
(Current/Filed)
F150
Speed:
(Current/Filed)
390kts
Departed: 12-Jul-13 08:31 AM
Arrived: 12-Jul-13 09:14 AM
Distance/Time
Traveled:
52nm/0:43
Distance/Time
To Go:
Arrived

Flight Plot

Page will automatically refresh every two minutes.


Map Options




Map Legend


Flown Route
Filed Route
Departure Airport
Arrival Airport
Navaid (VOR, NDB)
Fix

Horizontal Profiles

Position Reports

Time Latitude Longitude Heading Altitude Ground
Speed
12-Jul-13 08:25 45.642653 8.723988 80 785ft 0kts
12-Jul-13 08:26 45.642653 8.723988 80 785ft 0kts
12-Jul-13 08:27 45.642653 8.723988 80 785ft 0kts
12-Jul-13 08:28 45.642653 8.723988 80 785ft 0kts
12-Jul-13 08:29 45.642679 8.724200 80 785ft 4kts
12-Jul-13 08:30 45.643573 8.727710 98 785ft 8kts
12-Jul-13 08:31 45.642545 8.730008 168 785ft 0kts
12-Jul-13 08:32 45.616997 8.737516 169 2162ft 193kts
12-Jul-13 08:33 45.561394 8.751976 170 5459ft 279kts
12-Jul-13 08:34 45.497515 8.778325 139 10738ft 299kts
12-Jul-13 08:35 45.474473 8.872264 83 12550ft 358kts
12-Jul-13 08:36 45.512736 8.959457 35 14973ft 346kts
12-Jul-13 08:37 45.570062 8.989491 11 15042ft 318kts
12-Jul-13 08:38 45.626048 8.972807 321 15061ft 319kts
12-Jul-13 08:39 45.651623 8.916946 279 15061ft 312kts
12-Jul-13 08:40 45.649361 8.864926 251 15060ft 306kts
12-Jul-13 08:41 45.640683 8.780489 263 15051ft 307kts
12-Jul-13 08:42 45.636776 8.679780 262 15048ft 303kts
12-Jul-13 08:43 45.622430 8.592616 271 15056ft 301kts
12-Jul-13 08:44 45.625875 8.492240 270 15050ft 301kts
12-Jul-13 08:45 45.617195 8.404677 235 15060ft 297kts
12-Jul-13 08:46 45.561397 8.353129 208 15051ft 296kts
12-Jul-13 08:47 45.496918 8.303695 209 15050ft 296kts
12-Jul-13 08:48 45.442866 8.261580 209 15051ft 296kts
12-Jul-13 08:49 45.394096 8.223528 208 14852ft 307kts
12-Jul-13 08:50 45.330080 8.173710 207 14072ft 309kts
12-Jul-13 08:51 45.271859 8.128650 206 13359ft 315kts
12-Jul-13 08:52 45.209571 8.081036 206 12382ft 297kts
12-Jul-13 08:53 45.139551 8.027995 206 11188ft 294kts
12-Jul-13 08:54 45.074563 7.978622 207 10077ft 289kts
12-Jul-13 08:55 45.009584 7.928881 207 8969ft 283kts
12-Jul-13 08:56 44.950332 7.881941 209 7957ft 278kts
12-Jul-13 08:57 44.882063 7.860440 145 7500ft 275kts
12-Jul-13 08:58 44.864365 7.894627 102 7539ft 273kts
12-Jul-13 09:00 44.842734 8.044683 98 6795ft 250kts
12-Jul-13 09:01 44.866616 8.102490 10 6385ft 243kts
12-Jul-13 09:02 44.904592 8.061916 280 6086ft 252kts
12-Jul-13 09:03 44.913411 7.978679 279 5971ft 252kts
12-Jul-13 09:04 44.921047 7.896913 293 5997ft 251kts
12-Jul-13 09:05 44.938562 7.837182 259 5972ft 251kts
12-Jul-13 09:06 44.939225 7.766381 291 5460ft 245kts
12-Jul-13 09:07 44.954847 7.707867 291 5072ft 250kts
12-Jul-13 09:08 44.975951 7.642716 305 4676ft 249kts
12-Jul-13 09:09 45.010463 7.634897 12 4290ft 240kts
12-Jul-13 09:10 45.046729 7.639446 3 3993ft 230kts
12-Jul-13 09:11 45.083683 7.641809 3 3281ft 208kts
12-Jul-13 09:12 45.119593 7.644619 3 2292ft 190kts
12-Jul-13 09:13 45.152870 7.646474 4 1674ft 153kts
12-Jul-13 09:14 45.184954 7.648513 5 1122ft 140kts
12-Jul-13 09:15 45.206940 7.650004 357 1007ft 33kts
12-Jul-13 09:16 45.207682 7.647233 185 1007ft 17kts
12-Jul-13 09:17 45.203019 7.647040 179 1007ft 42kts
12-Jul-13 09:18 45.195476 7.646882 181 1007ft 41kts
12-Jul-13 09:19 45.193351 7.645751 257 1007ft 6kts
12-Jul-13 09:20 45.193315 7.645508 257 1007ft 0kts
12-Jul-13 09:21 45.193315 7.645508 257 1007ft 0kts
12-Jul-13 09:23 45.193315 7.645508 257 1007ft 0kts
12-Jul-13 09:24 45.193315 7.645508 257 1007ft 0kts
12-Jul-13 09:25 45.193315 7.645508 257 1007ft 0kts
12-Jul-13 09:26 45.193315 7.645508 257 1007ft 0kts
12-Jul-13 09:27 45.193315 7.645508 257 1007ft 0kts
12-Jul-13 09:28 45.193315 7.645508 257 1007ft 0kts
12-Jul-13 09:29 45.193315 7.645508 257 1007ft 0kts
12-Jul-13 09:30 45.193315 7.645508 257 1007ft 0kts

Navigation Log

Ident Type
1. LIMC Airport
2. SRN Navaid
3. LIMF Airport